createdAt,value
2018-11-11T00:02:02.187Z,87.84
2018-11-11T00:05:08.762Z,86.91
2018-11-11T00:08:14.708Z,87.62
2018-11-11T00:11:20.442Z,86.95
2018-11-11T00:14:27.457Z,86.41
2018-11-11T00:17:32.513Z,85.85
2018-11-11T00:20:37.715Z,86.73
2018-11-11T00:23:42.768Z,85.64
2018-11-11T00:26:49.557Z,86.19
2018-11-11T00:29:56.741Z,84.86
2018-11-11T00:33:01.783Z,85.76
2018-11-11T00:36:06.942Z,85.40
2018-11-11T00:39:11.999Z,86.11
2018-11-11T00:42:17.056Z,85.31
2018-11-11T00:45:23.633Z,85.09
2018-11-11T00:48:28.676Z,85.92
2018-11-11T00:51:33.724Z,85.32
2018-11-11T00:54:38.838Z,86.30
2018-11-11T00:57:45.792Z,86.71
2018-11-11T01:00:50.782Z,85.65
2018-11-11T01:03:57.318Z,85.65
2018-11-11T01:07:04.125Z,85.76
2018-11-11T01:10:11.761Z,86.13
2018-11-11T01:13:18.931Z,85.50
2018-11-11T01:16:25.955Z,85.50
2018-11-11T01:19:30.999Z,86.02
2018-11-11T01:22:37.997Z,86.83
2018-11-11T01:25:44.571Z,86.17
2018-11-11T01:28:49.562Z,86.95
2018-11-11T01:31:54.854Z,85.58
2018-11-11T01:34:59.873Z,85.31
2018-11-11T01:38:05.328Z,85.16
2018-11-11T01:41:10.431Z,85.90
2018-11-11T01:44:17.158Z,85.43
2018-11-11T01:47:22.443Z,85.00
2018-11-11T01:50:29.001Z,85.37
2018-11-11T01:53:33.988Z,84.99
2018-11-11T01:56:39.024Z,84.62
2018-11-11T01:59:44.014Z,84.99
2018-11-11T02:02:50.690Z,85.64
2018-11-11T02:05:55.646Z,84.65
2018-11-11T02:09:00.921Z,84.27
2018-11-11T02:12:05.978Z,84.15
2018-11-11T02:15:15.371Z,84.70
2018-11-11T02:18:20.477Z,84.84
2018-11-11T02:21:25.472Z,84.89
2018-11-11T02:24:30.499Z,84.18
2018-11-11T02:27:35.489Z,84.48
2018-11-11T02:30:40.518Z,84.26
2018-11-11T02:33:45.497Z,83.71
2018-11-11T02:36:50.529Z,83.25
2018-11-11T02:39:55.515Z,83.52
2018-11-11T02:43:00.513Z,83.05
2018-11-11T02:46:05.501Z,83.23
2018-11-11T02:49:10.477Z,84.04
2018-11-11T02:52:15.494Z,83.41
2018-11-11T02:55:20.503Z,84.99
2018-11-11T02:58:25.520Z,84.31
2018-11-11T03:01:30.504Z,83.96
2018-11-11T03:04:36.033Z,85.12
2018-11-11T03:07:40.952Z,85.21
2018-11-11T03:10:47.713Z,86.00
2018-11-11T03:13:52.724Z,85.70
2018-11-11T03:16:59.365Z,85.52
2018-11-11T03:20:04.598Z,83.93
2018-11-11T03:23:09.601Z,84.28
2018-11-11T03:26:16.173Z,85.23
2018-11-11T03:29:21.206Z,84.87
2018-11-11T03:32:26.219Z,85.35
2018-11-11T03:35:31.206Z,84.15
2018-11-11T03:38:37.862Z,85.41
2018-11-11T03:41:50.478Z,83.56
2018-11-11T03:44:55.473Z,84.81
2018-11-11T03:48:00.486Z,83.55
2018-11-11T03:51:05.761Z,83.07
2018-11-11T03:54:10.754Z,82.66
2018-11-11T03:57:17.305Z,83.15
2018-11-11T04:00:22.357Z,83.30
2018-11-11T04:03:27.359Z,82.97
2018-11-11T04:06:32.362Z,81.73
2018-11-11T04:09:37.354Z,81.37
2018-11-11T04:12:42.644Z,81.16
2018-11-11T04:15:49.606Z,81.93
2018-11-11T04:18:54.610Z,82.09
2018-11-11T04:22:06.994Z,81.43
2018-11-11T04:25:14.393Z,81.81
2018-11-11T04:28:19.515Z,81.51
2018-11-11T04:31:24.506Z,81.50
2018-11-11T04:34:29.493Z,80.97
2018-11-11T04:37:34.500Z,81.94
2018-11-11T04:40:39.517Z,81.00
2018-11-11T04:43:44.701Z,80.85
2018-11-11T04:46:49.709Z,82.21
2018-11-11T04:49:54.717Z,81.76
2018-11-11T04:52:59.717Z,80.70
2018-11-11T04:56:04.862Z,81.44
2018-11-11T04:59:09.970Z,81.84
2018-11-11T05:02:14.946Z,81.75
2018-11-11T05:05:19.916Z,82.29
2018-11-11T05:08:24.907Z,83.69
2018-11-11T05:15:15.242Z,83.89
2018-11-11T05:18:20.269Z,84.31
2018-11-11T05:21:25.235Z,84.78
2018-11-11T05:24:30.209Z,85.67
2018-11-11T05:27:35.187Z,85.74
2018-11-11T05:30:40.153Z,85.93
2018-11-11T05:33:45.128Z,87.09
2018-11-11T05:36:50.100Z,87.17
2018-11-11T05:39:55.091Z,87.23
2018-11-11T05:43:00.062Z,86.62
2018-11-11T05:46:05.061Z,86.28
2018-11-11T05:49:10.052Z,86.09
2018-11-11T05:52:15.090Z,87.43
2018-11-11T05:55:20.056Z,86.93
2018-11-11T05:58:25.042Z,87.43
2018-11-11T06:01:30.066Z,86.97
2018-11-11T06:04:35.031Z,88.04
2018-11-11T06:07:39.991Z,86.96
2018-11-11T06:10:44.975Z,86.96
2018-11-11T06:13:49.982Z,87.25
2018-11-11T06:16:57.217Z,86.72
2018-11-11T06:20:04.466Z,87.61
2018-11-11T06:23:11.141Z,86.49
2018-11-11T06:26:17.771Z,86.96
2018-11-11T06:29:24.766Z,86.12
2018-11-11T06:32:31.761Z,86.57
2018-11-11T06:35:36.827Z,85.97
2018-11-11T06:38:41.899Z,86.14
2018-11-11T06:41:49.113Z,84.98
2018-11-11T06:44:56.261Z,85.14
2018-11-11T06:48:03.375Z,85.79
2018-11-11T06:51:10.013Z,85.64
2018-11-11T06:54:15.147Z,85.64
2018-11-11T06:57:22.817Z,85.06
2018-11-11T07:00:31.518Z,85.95
2018-11-11T07:03:59.658Z,86.06
2018-11-11T07:07:05.919Z,86.25
2018-11-11T07:10:15.226Z,86.44
2018-11-11T07:13:21.946Z,85.73
2018-11-11T07:16:30.985Z,86.10
2018-11-11T07:19:37.929Z,86.73
2018-11-11T07:22:44.884Z,87.30
2018-11-11T07:25:51.995Z,85.90
2018-11-11T07:28:57.158Z,86.93
2018-11-11T07:32:03.810Z,85.87
2018-11-11T07:35:09.700Z,84.90
2018-11-11T07:38:14.853Z,85.00
2018-11-11T07:41:21.968Z,83.20
2018-11-11T07:44:27.067Z,83.63
2018-11-11T07:47:36.289Z,83.45
2018-11-11T07:50:44.902Z,83.40
2018-11-11T07:53:52.537Z,81.77
2018-11-11T07:56:57.582Z,83.22
2018-11-11T08:00:07.521Z,81.80
2018-11-11T08:03:12.564Z,81.71
2018-11-11T08:06:17.691Z,80.03
2018-11-11T08:09:22.846Z,79.79
2018-11-11T08:12:27.999Z,79.65
2018-11-11T08:15:33.058Z,80.25
2018-11-11T08:19:43.231Z,79.86
2018-11-11T08:22:49.490Z,77.47
2018-11-11T08:25:54.553Z,76.87
2018-11-11T08:28:59.634Z,70.94
2018-11-11T08:32:05.849Z,67.17
2018-11-11T08:35:13.021Z,60.71
2018-11-11T08:38:22.322Z,56.80
2018-11-11T08:41:29.286Z,54.65
2018-11-11T08:44:34.283Z,56.18
2018-11-11T08:47:39.436Z,53.34
2018-11-11T08:50:44.454Z,52.52
2018-11-11T08:53:49.466Z,54.87
2018-11-11T08:56:54.477Z,57.57
2018-11-11T08:59:59.518Z,56.05
2018-11-11T09:03:05.334Z,54.57
2018-11-11T09:06:10.378Z,53.68
2018-11-11T09:09:17.070Z,53.67
2018-11-11T09:12:22.197Z,55.08
2018-11-11T09:15:28.970Z,57.74
2018-11-11T09:18:36.154Z,56.80
2018-11-11T09:21:43.274Z,54.39
2018-11-11T09:24:52.245Z,53.67
2018-11-11T09:27:57.402Z,52.26
2018-11-11T09:31:02.719Z,52.85
2018-11-11T09:34:26.069Z,51.43
2018-11-11T09:37:31.098Z,52.97
2018-11-11T09:40:36.395Z,54.76
2018-11-11T09:43:41.346Z,55.02
2018-11-11T09:46:46.571Z,55.64
2018-11-11T09:49:51.638Z,56.98
2018-11-11T09:52:56.721Z,56.54
2018-11-11T09:56:01.774Z,56.71
2018-11-11T09:59:06.826Z,56.85
2018-11-11T10:02:12.004Z,60.01
2018-11-11T10:05:23.623Z,59.05
2018-11-11T10:08:40.499Z,59.06
2018-11-11T10:12:24.562Z,61.04
2018-11-11T10:15:49.316Z,59.13
2018-11-11T10:18:59.525Z,59.75
2018-11-11T10:22:13.569Z,60.55
2018-11-11T10:25:24.439Z,59.94
2018-11-11T10:28:38.068Z,59.46
2018-11-11T10:32:03.610Z,57.90
2018-11-11T10:35:29.837Z,59.07
2018-11-11T10:38:41.409Z,59.95
2018-11-11T10:41:50.867Z,58.22
2018-11-11T10:44:59.484Z,57.66
2018-11-11T10:48:05.877Z,59.97
2018-11-11T10:51:10.909Z,59.25
2018-11-11T10:54:15.929Z,59.69
2018-11-11T10:57:20.915Z,58.04
2018-11-11T11:00:26.884Z,58.54
2018-11-11T11:03:33.143Z,57.87
2018-11-11T11:06:43.882Z,57.92
2018-11-11T11:09:49.317Z,60.11
2018-11-11T11:12:54.346Z,59.14
2018-11-11T11:15:59.397Z,58.29
2018-11-11T11:19:04.624Z,58.05
2018-11-11T11:22:09.666Z,57.82
2018-11-11T11:25:14.657Z,56.46
2018-11-11T11:28:19.634Z,57.79
2018-11-11T11:31:27.410Z,57.78
2018-11-11T11:34:32.345Z,57.93
2018-11-11T11:37:38.025Z,57.06
2018-11-11T11:40:43.066Z,57.78
2018-11-11T11:43:48.165Z,56.53
2018-11-11T11:46:53.155Z,57.70
2018-11-11T11:49:58.187Z,58.29
2018-11-11T11:53:03.279Z,56.38
2018-11-11T11:56:08.222Z,57.30
2018-11-11T11:59:13.197Z,56.39
2018-11-11T12:02:18.246Z,57.14
2018-11-11T12:05:23.227Z,55.69
2018-11-11T12:08:28.288Z,57.37
2018-11-11T12:15:10.359Z,59.56
2018-11-11T12:18:15.378Z,58.14
2018-11-11T12:21:20.404Z,59.59
2018-11-11T12:24:25.365Z,60.20
2018-11-11T12:27:30.371Z,58.56
2018-11-11T12:30:35.436Z,59.62
2018-11-11T12:33:42.265Z,58.77
2018-11-11T12:36:47.288Z,59.53
2018-11-11T12:39:52.439Z,59.19
2018-11-11T12:42:59.062Z,58.44
2018-11-11T12:46:14.020Z,58.42
2018-11-11T12:49:19.054Z,59.61
2018-11-11T12:52:24.044Z,57.75
2018-11-11T12:55:29.089Z,59.48
2018-11-11T12:58:34.069Z,59.36
2018-11-11T13:05:12.235Z,59.17
2018-11-11T13:08:17.264Z,58.43
2018-11-11T13:11:22.318Z,58.25
2018-11-11T13:14:28.065Z,57.03
2018-11-11T13:17:33.304Z,57.70
2018-11-11T13:20:38.406Z,57.26
2018-11-11T13:23:43.450Z,56.54
2018-11-11T13:26:48.821Z,55.47
2018-11-11T13:29:56.038Z,56.97
2018-11-11T13:33:03.171Z,57.21
2018-11-11T13:36:09.378Z,55.44
2018-11-11T13:39:14.463Z,56.02
2018-11-11T13:42:29.218Z,56.01
2018-11-11T13:45:36.015Z,57.38
2018-11-11T13:48:43.023Z,56.86
2018-11-11T13:51:48.105Z,57.63
2018-11-11T13:54:53.130Z,57.37
2018-11-11T13:58:01.992Z,57.75
2018-11-11T14:01:07.085Z,58.00
2018-11-11T14:04:12.117Z,57.28
2018-11-11T14:07:17.204Z,57.32
2018-11-11T14:10:22.266Z,57.75
2018-11-11T14:13:29.281Z,56.58
2018-11-11T14:16:40.817Z,56.58
2018-11-11T14:19:47.470Z,56.29
2018-11-11T14:22:54.545Z,57.44
2018-11-11T14:25:59.610Z,57.60
2018-11-11T14:29:05.340Z,57.03
2018-11-11T14:32:12.575Z,57.02
2018-11-11T14:35:17.568Z,57.90
2018-11-11T14:38:22.679Z,58.21
2018-11-11T14:45:00.274Z,58.40
2018-11-11T14:48:10.110Z,58.97
2018-11-11T14:51:16.909Z,59.54
2018-11-11T14:54:24.020Z,59.06
2018-11-11T14:57:29.015Z,61.05
2018-11-11T15:00:36.105Z,59.99
2018-11-11T15:03:41.218Z,59.92
2018-11-11T15:06:48.333Z,60.16
2018-11-11T15:16:55.126Z,62.35
2018-11-11T15:20:00.235Z,61.46
2018-11-11T15:23:05.816Z,62.76
2018-11-11T15:26:10.802Z,64.17
2018-11-11T15:29:15.978Z,63.54
2018-11-11T15:32:20.958Z,64.68
2018-11-11T15:35:25.967Z,64.14
2018-11-11T15:38:31.263Z,65.93
2018-11-11T15:41:36.313Z,65.73
2018-11-11T15:44:41.301Z,66.08
2018-11-11T15:47:46.298Z,66.17
2018-11-11T15:50:51.306Z,65.60
2018-11-11T15:53:56.292Z,66.92
2018-11-11T15:57:01.811Z,67.07
2018-11-11T16:00:10.488Z,68.09
2018-11-11T16:03:15.479Z,69.36
2018-11-11T16:06:20.658Z,68.91
2018-11-11T16:09:27.348Z,68.84
2018-11-11T16:12:32.622Z,70.25
2018-11-11T16:15:39.046Z,72.19
2018-11-11T16:18:44.078Z,72.34
2018-11-11T16:21:49.151Z,72.66
2018-11-11T16:24:54.179Z,74.05
2018-11-11T16:27:59.285Z,73.82
2018-11-11T16:31:04.951Z,74.20
2018-11-11T16:34:10.051Z,75.43
2018-11-11T16:37:15.088Z,76.84
2018-11-11T16:40:21.711Z,77.37
2018-11-11T16:43:26.724Z,77.80
2018-11-11T16:46:31.739Z,76.91
2018-11-11T16:49:37.018Z,78.76
2018-11-11T16:52:43.042Z,79.04
2018-11-11T16:55:48.107Z,79.45
2018-11-11T16:58:53.136Z,79.33
2018-11-11T17:01:58.168Z,80.00
2018-11-11T17:05:03.229Z,79.20
2018-11-11T17:08:08.260Z,78.80
2018-11-11T17:11:13.345Z,78.29
2018-11-11T17:14:19.004Z,77.77
2018-11-11T17:17:24.161Z,76.69
2018-11-11T17:20:29.454Z,76.39
2018-11-11T17:23:34.540Z,75.88
2018-11-11T17:26:39.791Z,76.26
2018-11-11T17:29:44.855Z,75.67
2018-11-11T17:32:50.648Z,75.10
2018-11-11T17:35:58.315Z,75.43
2018-11-11T17:39:07.791Z,74.69
2018-11-11T17:42:12.790Z,74.57
2018-11-11T17:45:18.210Z,74.21
2018-11-11T17:48:23.261Z,73.32
2018-11-11T17:51:28.328Z,73.79
2018-11-11T17:54:33.347Z,74.31
2018-11-11T17:57:38.357Z,74.30
2018-11-11T18:00:43.527Z,74.72
2018-11-11T18:03:48.746Z,74.49
2018-11-11T18:06:53.855Z,74.16
2018-11-11T18:09:58.879Z,74.56
2018-11-11T18:13:04.638Z,74.07
2018-11-11T18:16:09.732Z,74.33
2018-11-11T18:19:15.341Z,75.45
2018-11-11T18:22:20.567Z,76.03
2018-11-11T18:25:25.603Z,75.32
2018-11-11T18:28:30.872Z,74.77
2018-11-11T18:31:36.699Z,75.66
2018-11-11T18:34:41.689Z,74.74
2018-11-11T18:37:46.770Z,75.83
2018-11-11T18:40:51.810Z,75.80
2018-11-11T18:43:56.931Z,75.90
2018-11-11T18:47:01.991Z,75.72
2018-11-11T18:50:12.580Z,76.25
2018-11-11T18:53:17.682Z,76.52
2018-11-11T18:56:22.593Z,76.03
2018-11-11T18:59:27.985Z,77.26
2018-11-11T19:02:32.998Z,76.39
2018-11-11T19:05:38.042Z,75.71
2018-11-11T19:08:43.101Z,77.47
2018-11-11T19:11:48.125Z,77.05
2018-11-11T19:14:53.174Z,77.14
2018-11-11T19:17:58.221Z,76.30
2018-11-11T19:21:03.348Z,76.34
2018-11-11T19:24:08.572Z,77.09
2018-11-11T19:27:13.586Z,76.92
2018-11-11T19:30:19.766Z,76.80
2018-11-11T19:33:24.739Z,77.12
2018-11-11T19:36:29.747Z,76.78
2018-11-11T19:39:35.040Z,75.92
2018-11-11T19:42:40.557Z,76.95
2018-11-11T19:45:45.882Z,77.34
2018-11-11T19:48:51.054Z,77.17
2018-11-11T19:51:56.050Z,76.67
2018-11-11T19:55:02.857Z,77.61
2018-11-11T19:58:08.037Z,77.05
2018-11-11T20:01:13.085Z,76.36
2018-11-11T20:04:18.229Z,76.66
2018-11-11T20:07:23.249Z,76.07
2018-11-11T20:10:29.010Z,75.41
2018-11-11T20:13:34.011Z,76.71
2018-11-11T20:16:39.226Z,76.62
2018-11-11T20:19:44.406Z,76.88
2018-11-11T20:26:20.218Z,76.30
2018-11-11T20:29:25.252Z,75.75
2018-11-11T20:32:30.312Z,74.24
2018-11-11T20:35:35.449Z,75.60
2018-11-11T20:38:40.469Z,74.86
2018-11-11T20:41:45.659Z,73.72
2018-11-11T20:44:50.863Z,74.02
2018-11-11T20:47:55.891Z,72.11
2018-11-11T20:51:00.902Z,72.03
2018-11-11T20:54:06.050Z,71.87
2018-11-11T20:57:11.045Z,70.96
2018-11-11T21:00:17.579Z,71.27
2018-11-11T21:03:22.651Z,70.70
2018-11-11T21:06:27.630Z,71.50
2018-11-11T21:09:32.951Z,72.87
2018-11-11T21:15:02.849Z,72.77
2018-11-11T21:18:07.902Z,72.06
2018-11-11T21:21:12.972Z,72.22
2018-11-11T21:24:18.222Z,71.54
2018-11-11T21:27:23.239Z,72.62
2018-11-11T21:30:29.541Z,71.84
2018-11-11T21:33:34.539Z,72.86
2018-11-11T21:36:39.547Z,72.38
2018-11-11T21:39:58.369Z,72.39
2018-11-11T21:43:03.602Z,72.98
2018-11-11T21:46:10.288Z,72.98
2018-11-11T21:49:15.390Z,71.89
2018-11-11T21:52:20.406Z,71.92
2018-11-11T21:55:25.445Z,72.05
2018-11-11T21:58:30.452Z,72.66
2018-11-11T22:01:35.473Z,71.58
2018-11-11T22:04:40.490Z,72.22
2018-11-11T22:07:45.487Z,73.29
2018-11-11T22:10:51.068Z,72.85
2018-11-11T22:20:58.032Z,74.99
2018-11-11T22:24:03.282Z,75.26
2018-11-11T22:27:08.278Z,76.16
2018-11-11T22:30:13.337Z,76.40
2018-11-11T22:33:18.367Z,77.37
2018-11-11T22:36:23.383Z,77.44
2018-11-11T22:39:28.375Z,78.31
2018-11-11T22:42:33.705Z,79.54
2018-11-11T22:45:38.639Z,80.11
2018-11-11T22:48:43.668Z,78.86
2018-11-11T22:51:48.856Z,79.57
2018-11-11T22:54:53.878Z,79.93
2018-11-11T22:57:58.999Z,80.07
2018-11-11T23:04:07.175Z,82.26
2018-11-11T23:07:12.327Z,81.63
2018-11-11T23:10:17.312Z,82.22
2018-11-11T23:13:29.110Z,83.77
2018-11-11T23:16:34.105Z,83.02
2018-11-11T23:19:39.153Z,83.34
2018-11-11T23:22:44.198Z,82.79
2018-11-11T23:25:56.543Z,82.43
2018-11-11T23:29:01.566Z,82.91
2018-11-11T23:32:06.549Z,82.65
2018-11-11T23:35:11.538Z,83.05
2018-11-11T23:38:16.518Z,84.34
2018-11-11T23:41:21.504Z,84.00
2018-11-11T23:44:26.493Z,83.71
2018-11-11T23:47:31.530Z,83.69
2018-11-11T23:50:36.525Z,84.58
2018-11-11T23:53:41.535Z,84.16
2018-11-11T23:56:46.524Z,84.10
2018-11-11T23:59:51.542Z,84.09
